Time;durP1;ratioP1;P1;durP2;ratioP2;P2;SDS_P1;SDS_P2;PMS_P1;PMS_P2;Temp;Humidity;BMP_temperature;BMP_pressure;BME280_temperature;BME280_humidity;BME280_pressure;Samples;Min_cycle;Max_cycle;Signal;HPM_P1;HPM_P2
2023/01/11 00:00:47;;;;;;;1.75;1.10;;;5.50;99.90;;;;;;5052044;28;20205;-70
2023/01/11 00:03:16;;;;;;;1.63;1.10;;;5.50;99.90;;;;;;5052981;28;20219;-70
2023/01/11 00:05:44;;;;;;;2.50;1.00;;;5.50;99.90;;;;;;5052029;28;20259;-70
2023/01/11 00:08:11;;;;;;;1.40;1.00;;;5.50;99.90;;;;;;5051210;28;20208;-70
2023/01/11 00:10:40;;;;;;;2.30;1.00;;;5.60;99.90;;;;;;5051333;28;20213;-69
2023/01/11 00:13:07;;;;;;;1.60;1.00;;;5.60;99.90;;;;;;5051788;28;20200;-70
2023/01/11 00:15:35;;;;;;;1.55;0.80;;;5.60;99.90;;;;;;5052376;28;20692;-70
2023/01/11 00:18:02;;;;;;;1.15;0.85;;;5.60;99.90;;;;;;5052551;28;20209;-70
2023/01/11 00:20:28;;;;;;;1.23;1.00;;;5.60;99.90;;;;;;5051849;28;20236;-69
2023/01/11 00:22:55;;;;;;;2.00;1.05;;;5.60;99.90;;;;;;5052693;28;20212;-69
2023/01/11 00:25:22;;;;;;;1.60;1.33;;;5.70;99.90;;;;;;5052121;28;20201;-69
2023/01/11 00:27:50;;;;;;;2.95;1.10;;;5.70;99.90;;;;;;5052656;28;20308;-69
2023/01/11 00:30:18;;;;;;;2.25;1.30;;;5.70;99.90;;;;;;5051678;28;20296;-69
2023/01/11 00:32:44;;;;;;;1.85;1.02;;;5.80;99.90;;;;;;5052316;28;20208;-69
2023/01/11 00:35:11;;;;;;;1.88;1.08;;;5.80;99.90;;;;;;5052143;28;20217;-68
2023/01/11 00:37:38;;;;;;;1.63;1.30;;;5.70;99.90;;;;;;5052046;28;20711;-69
2023/01/11 00:40:06;;;;;;;1.20;1.08;;;5.80;99.90;;;;;;5051795;28;20208;-69
2023/01/11 00:48:05;;;;;;;2.05;1.30;;;5.90;99.90;;;;;;5052024;28;20282;-70
2023/01/11 00:50:34;;;;;;;1.27;0.98;;;5.90;99.90;;;;;;5051328;28;20292;-69
2023/01/11 00:53:01;;;;;;;1.55;1.10;;;5.90;99.90;;;;;;5051823;28;20212;-69
2023/01/11 00:55:28;;;;;;;2.50;1.33;;;5.90;99.90;;;;;;5051604;28;20224;-70
2023/01/11 00:57:54;;;;;;;1.08;0.98;;;5.90;99.90;;;;;;5051831;28;20197;-69
2023/01/11 01:00:23;;;;;;;1.38;0.90;;;6.00;99.90;;;;;;5051376;28;20201;-70
2023/01/11 01:02:50;;;;;;;1.15;1.05;;;6.00;99.90;;;;;;5051974;28;20204;-69
2023/01/11 01:05:17;;;;;;;1.77;1.10;;;6.00;99.90;;;;;;5051527;28;20711;-70
2023/01/11 01:07:44;;;;;;;1.02;0.80;;;6.00;99.90;;;;;;5051816;28;20225;-69
2023/01/11 01:10:13;;;;;;;1.63;0.90;;;6.00;99.90;;;;;;5050790;28;20228;-69
2023/01/11 01:15:26;;;;;;;0.95;0.85;;;6.00;99.90;;;;;;5051221;28;20220;-69
2023/01/11 01:17:54;;;;;;;1.42;0.80;;;6.00;99.90;;;;;;5050751;28;20244;-70
2023/01/11 01:20:21;;;;;;;1.38;1.08;;;6.00;99.90;;;;;;5050806;28;20240;-69
2023/01/11 01:22:48;;;;;;;1.10;1.00;;;6.00;99.90;;;;;;5051299;28;20212;-70
2023/01/11 01:25:14;;;;;;;1.00;0.90;;;6.00;99.90;;;;;;5051776;28;20222;-70
2023/01/11 01:27:41;;;;;;;1.27;0.93;;;5.90;99.90;;;;;;5051590;28;20217;-71
2023/01/11 01:30:09;;;;;;;1.98;1.02;;;6.00;99.90;;;;;;5051453;28;20205;-71
2023/01/11 01:32:37;;;;;;;1.40;0.88;;;5.90;99.90;;;;;;5051201;28;20209;-70
2023/01/11 01:35:05;;;;;;;1.15;1.00;;;6.00;99.90;;;;;;5051334;28;20227;-70
2023/01/11 01:37:31;;;;;;;2.53;0.90;;;5.90;99.90;;;;;;5050906;28;20247;-70
2023/01/11 01:39:58;;;;;;;1.88;1.17;;;5.90;99.90;;;;;;5050276;28;20205;-70
2023/01/11 01:42:25;;;;;;;1.95;0.90;;;5.90;99.90;;;;;;5051032;28;20201;-71
2023/01/11 01:44:58;;;;;;;1.60;0.85;;;5.90;99.90;;;;;;5050950;28;20202;-70
2023/01/11 01:47:31;;;;;;;1.85;1.10;;;5.90;99.90;;;;;;5051059;28;20248;-71
2023/01/11 01:50:02;;;;;;;2.08;0.98;;;6.00;99.90;;;;;;5050437;28;20673;-70
2023/01/11 01:52:31;;;;;;;3.38;1.35;;;6.00;99.90;;;;;;5050788;28;20205;-70
2023/01/11 01:55:02;;;;;;;1.52;0.90;;;6.00;99.90;;;;;;5050881;28;20225;-71
2023/01/11 01:57:33;;;;;;;1.15;1.05;;;6.00;99.90;;;;;;5050652;28;20708;-70
2023/01/11 02:00:05;;;;;;;0.77;0.70;;;6.00;99.90;;;;;;5050384;28;20201;-71
2023/01/11 02:02:31;;;;;;;1.20;0.90;;;6.00;99.90;;;;;;5050466;28;20197;-70
2023/01/11 02:05:00;;;;;;;0.98;0.88;;;6.00;99.90;;;;;;5050847;28;20198;-70
2023/01/11 02:07:31;;;;;;;0.90;0.75;;;6.00;99.90;;;;;;5050167;28;20236;-69
2023/01/11 02:10:03;;;;;;;0.80;0.60;;;6.00;99.90;;;;;;5050177;28;20204;-70
2023/01/11 02:12:33;;;;;;;1.33;0.90;;;6.00;99.90;;;;;;5050303;28;20209;-69
2023/01/11 02:15:01;;;;;;;1.70;0.88;;;6.10;99.90;;;;;;5050637;28;20224;-69
2023/01/11 02:17:27;;;;;;;1.20;0.95;;;6.10;99.90;;;;;;5050428;28;20311;-69
2023/01/11 02:19:57;;;;;;;1.20;0.80;;;6.20;99.90;;;;;;5049729;28;20201;-69
2023/01/11 02:22:56;;;;;;;2.00;1.20;;;6.20;99.90;;;;;;5050393;28;20216;-69
2023/01/11 02:26:02;;;;;;;1.00;0.80;;;6.30;99.90;;;;;;5050252;28;20192;-69
2023/01/11 02:28:34;;;;;;;0.80;0.70;;;6.30;99.90;;;;;;5049810;28;20205;-70
2023/01/11 02:31:09;;;;;;;1.05;0.90;;;6.30;99.90;;;;;;5050447;28;20213;-69
2023/01/11 02:33:42;;;;;;;0.90;0.70;;;6.40;99.90;;;;;;5050360;28;20215;-70
2023/01/11 02:36:17;;;;;;;1.45;1.15;;;6.40;99.90;;;;;;5050152;28;20662;-69
2023/01/11 02:38:49;;;;;;;1.73;0.75;;;6.40;99.90;;;;;;5050458;28;20204;-70
2023/01/11 02:41:22;;;;;;;0.80;0.70;;;6.40;99.90;;;;;;5050394;28;20201;-69
2023/01/11 02:46:48;;;;;;;1.30;0.80;;;6.40;99.90;;;;;;5050133;28;20220;-69
2023/01/11 02:49:23;;;;;;;1.15;0.80;;;6.40;99.90;;;;;;5049766;28;20664;-70
2023/01/11 02:51:54;;;;;;;1.17;0.75;;;6.40;99.90;;;;;;5050647;28;20204;-69
2023/01/11 02:54:22;;;;;;;1.00;0.70;;;6.40;99.90;;;;;;5049849;28;20691;-70
2023/01/11 02:56:53;;;;;;;4.00;1.23;;;6.40;99.90;;;;;;5050383;28;20220;-70
2023/01/11 02:59:23;;;;;;;1.42;0.95;;;6.40;99.90;;;;;;5049531;28;20201;-69
2023/01/11 03:01:54;;;;;;;1.85;1.13;;;6.50;99.90;;;;;;5050302;28;20212;-70
2023/01/11 03:04:26;;;;;;;0.90;0.75;;;6.50;99.90;;;;;;5049810;28;20243;-70
2023/01/11 03:06:59;;;;;;;1.00;0.80;;;6.50;99.90;;;;;;5050224;28;20227;-69
2023/01/11 03:09:33;;;;;;;0.95;0.80;;;6.50;99.90;;;;;;5049305;28;20664;-69
2023/01/11 03:15:17;;;;;;;0.90;0.70;;;6.50;99.90;;;;;;5059281;28;20226;-70
2023/01/11 03:17:54;;;;;;;1.08;0.98;;;6.50;99.90;;;;;;5069829;28;20228;-69
2023/01/11 03:20:25;;;;;;;1.30;0.70;;;6.60;99.90;;;;;;5069422;28;20251;-69
2023/01/11 03:23:09;;;;;;;1.42;0.77;;;6.60;99.90;;;;;;5069825;28;20208;-69
2023/01/11 03:25:45;;;;;;;0.85;0.70;;;6.70;99.90;;;;;;5069700;28;20242;-69
2023/01/11 03:28:22;;;;;;;1.27;0.70;;;6.70;99.90;;;;;;5069580;28;20204;-69
2023/01/11 03:30:57;;;;;;;0.80;0.70;;;6.70;99.90;;;;;;5070005;28;20667;-69
2023/01/11 03:33:33;;;;;;;1.20;0.77;;;6.70;99.90;;;;;;5069465;28;20211;-70
2023/01/11 03:36:03;;;;;;;4.15;1.20;;;6.70;99.90;;;;;;5069832;28;20243;-69
2023/01/11 03:38:36;;;;;;;0.90;0.70;;;6.70;99.90;;;;;;5069023;28;20659;-69
2023/01/11 03:41:06;;;;;;;0.90;0.80;;;6.80;99.90;;;;;;5070764;28;20213;-69
2023/01/11 03:43:37;;;;;;;0.75;0.70;;;6.80;99.90;;;;;;5073472;28;20211;-70
2023/01/11 03:46:10;;;;;;;1.92;0.88;;;6.80;99.90;;;;;;5073279;28;20282;-70
2023/01/11 03:48:42;;;;;;;0.90;0.80;;;6.90;99.90;;;;;;5072763;28;20204;-70
2023/01/11 03:51:13;;;;;;;0.70;0.70;;;6.80;99.90;;;;;;5073122;28;20223;-70
2023/01/11 03:53:43;;;;;;;1.75;0.70;;;6.80;99.90;;;;;;5073362;28;20205;-70
2023/01/11 03:56:12;;;;;;;1.25;1.00;;;6.90;99.90;;;;;;5072961;28;20236;-70
2023/01/11 03:58:39;;;;;;;0.80;0.70;;;6.90;99.90;;;;;;5072442;28;20204;-69
2023/01/11 04:01:08;;;;;;;0.70;0.70;;;6.90;99.90;;;;;;5073056;28;20670;-69
2023/01/11 04:03:34;;;;;;;1.98;0.80;;;6.80;99.90;;;;;;5072546;28;20798;-70
2023/01/11 04:06:02;;;;;;;0.90;0.70;;;6.80;99.90;;;;;;5073091;28;20313;-69
2023/01/11 04:08:29;;;;;;;0.70;0.70;;;6.90;99.90;;;;;;5072169;28;20318;-69
2023/01/11 04:10:56;;;;;;;1.25;0.70;;;6.90;99.90;;;;;;5073106;28;20238;-70
2023/01/11 04:13:23;;;;;;;0.80;0.70;;;6.90;99.90;;;;;;5072582;28;20208;-70
2023/01/11 04:15:52;;;;;;;1.25;0.80;;;6.80;99.90;;;;;;5072588;28;20703;-69
2023/01/11 04:18:20;;;;;;;0.70;0.60;;;6.90;99.90;;;;;;5072129;28;20223;-69
2023/01/11 04:20:46;;;;;;;0.80;0.60;;;6.90;99.90;;;;;;5072436;28;20220;-69
2023/01/11 04:23:14;;;;;;;2.17;0.75;;;6.90;99.90;;;;;;5072759;28;20291;-69
2023/01/11 04:25:41;;;;;;;0.80;0.70;;;6.90;99.90;;;;;;5072241;28;20205;-70
2023/01/11 04:28:07;;;;;;;1.00;0.70;;;6.90;99.90;;;;;;5072760;28;20211;-69
2023/01/11 04:30:34;;;;;;;0.80;0.80;;;6.80;99.90;;;;;;5072077;28;20567;-69
2023/01/11 04:33:01;;;;;;;0.85;0.75;;;6.90;99.90;;;;;;5072415;28;20894;-69
2023/01/11 04:35:29;;;;;;;1.02;0.82;;;6.90;99.90;;;;;;5071490;28;20215;-69
2023/01/11 04:37:57;;;;;;;0.80;0.80;;;6.90;99.90;;;;;;5072094;28;20204;-69
2023/01/11 04:40:23;;;;;;;0.80;0.75;;;6.90;99.90;;;;;;5070404;28;20196;-70
2023/01/11 04:42:50;;;;;;;0.80;0.70;;;6.90;99.90;;;;;;5071606;28;20197;-69
2023/01/11 04:45:16;;;;;;;1.10;1.00;;;7.00;99.90;;;;;;5071355;28;20647;-70
2023/01/11 04:47:43;;;;;;;1.65;0.65;;;7.00;99.90;;;;;;5071353;28;20224;-70
2023/01/11 04:50:11;;;;;;;0.70;0.70;;;7.00;99.90;;;;;;5067924;28;20196;-70
2023/01/11 04:52:40;;;;;;;0.80;0.70;;;7.00;99.90;;;;;;5071460;28;20216;-69
2023/01/11 04:55:07;;;;;;;0.70;0.60;;;7.10;99.90;;;;;;5071653;28;20217;-70
2023/01/11 04:57:34;;;;;;;0.80;0.80;;;7.10;99.90;;;;;;5071431;28;20703;-70
2023/01/11 05:00:01;;;;;;;1.20;0.80;;;7.20;99.90;;;;;;5071187;28;20223;-70
2023/01/11 05:02:28;;;;;;;0.70;0.60;;;7.20;99.90;;;;;;5070582;28;20199;-70
2023/01/11 05:04:54;;;;;;;0.90;0.70;;;7.20;99.90;;;;;;5071042;28;20204;-69
2023/01/11 05:07:21;;;;;;;0.80;0.70;;;7.30;99.90;;;;;;5071079;28;20209;-70
2023/01/11 05:09:49;;;;;;;0.80;0.77;;;7.30;99.90;;;;;;5070166;28;20537;-70
2023/01/11 05:12:16;;;;;;;0.80;0.70;;;7.30;99.90;;;;;;5069990;28;20204;-69
2023/01/11 05:14:42;;;;;;;1.00;0.80;;;7.30;99.90;;;;;;5071482;28;20193;-69
2023/01/11 05:17:13;;;;;;;0.70;0.60;;;7.30;99.90;;;;;;5070970;28;20223;-69
2023/01/11 05:19:40;;;;;;;0.80;0.70;;;7.30;99.90;;;;;;5068006;28;20193;-70
2023/01/11 05:22:06;;;;;;;0.80;0.80;;;7.30;99.90;;;;;;5071178;28;20204;-70
2023/01/11 05:24:33;;;;;;;1.30;0.80;;;7.20;99.90;;;;;;5069526;28;20453;-69
2023/01/11 05:27:02;;;;;;;1.27;0.77;;;7.20;99.90;;;;;;5070554;28;20223;-70
2023/01/11 05:29:29;;;;;;;0.93;0.80;;;7.20;99.90;;;;;;5070718;28;20883;-70
2023/01/11 05:31:56;;;;;;;1.05;0.70;;;7.20;99.90;;;;;;5071341;28;20219;-69
2023/01/11 05:34:22;;;;;;;1.13;0.90;;;7.20;99.90;;;;;;5070882;28;20201;-70
2023/01/11 05:36:49;;;;;;;0.70;0.70;;;7.20;99.90;;;;;;5071138;28;20611;-69
2023/01/11 05:39:16;;;;;;;0.90;0.82;;;7.30;99.90;;;;;;5070682;28;20207;-70
2023/01/11 05:41:43;;;;;;;0.80;0.73;;;7.30;99.90;;;;;;5070997;28;20587;-71
2023/01/11 05:46:57;;;;;;;0.70;0.70;;;7.30;99.90;;;;;;5071157;28;20218;-69
2023/01/11 05:49:24;;;;;;;1.08;0.80;;;7.30;99.90;;;;;;5070579;28;20204;-70
2023/01/11 05:51:50;;;;;;;2.42;1.27;;;7.30;99.90;;;;;;5070841;28;20207;-70
2023/01/11 05:54:17;;;;;;;1.10;0.80;;;7.40;99.90;;;;;;5070797;28;20208;-69
2023/01/11 05:56:44;;;;;;;1.20;0.80;;;7.40;99.90;;;;;;5070491;28;20593;-70
2023/01/11 05:59:12;;;;;;;0.95;0.82;;;7.40;99.90;;;;;;5070592;28;20200;-69
2023/01/11 06:01:39;;;;;;;0.70;0.60;;;7.40;99.90;;;;;;5070812;28;20663;-69
2023/01/11 06:04:07;;;;;;;0.70;0.60;;;7.40;99.90;;;;;;5070412;28;20219;-69
2023/01/11 06:06:34;;;;;;;0.80;0.75;;;7.50;99.90;;;;;;5070697;28;20586;-69
2023/01/11 06:09:00;;;;;;;0.90;0.80;;;7.40;99.90;;;;;;5070363;28;20200;-70
2023/01/11 06:11:27;;;;;;;1.00;0.80;;;7.40;99.90;;;;;;5070572;28;20208;-69
2023/01/11 06:13:54;;;;;;;0.85;0.70;;;7.40;99.90;;;;;;5070928;28;20223;-69
2023/01/11 06:16:22;;;;;;;1.00;0.85;;;7.40;99.90;;;;;;5070418;28;20220;-68
2023/01/11 06:18:51;;;;;;;1.10;0.80;;;7.40;99.90;;;;;;5070395;28;20238;-68
2023/01/11 06:21:19;;;;;;;1.00;0.80;;;7.40;99.90;;;;;;5070406;28;20697;-68
2023/01/11 06:23:47;;;;;;;1.10;0.80;;;7.50;99.90;;;;;;5070576;28;20204;-68
2023/01/11 06:26:15;;;;;;;0.80;0.70;;;7.40;99.90;;;;;;5070380;28;20589;-69
2023/01/11 06:28:43;;;;;;;0.80;0.70;;;7.50;99.90;;;;;;5069715;28;20196;-69
2023/01/11 06:31:10;;;;;;;0.80;0.70;;;7.50;99.90;;;;;;5070413;28;20211;-69
2023/01/11 06:33:38;;;;;;;1.63;0.80;;;7.50;99.90;;;;;;5070369;28;20219;-69
2023/01/11 06:36:08;;;;;;;1.00;0.90;;;7.50;99.90;;;;;;5070206;28;20773;-69
2023/01/11 06:38:35;;;;;;;0.93;0.68;;;7.50;99.90;;;;;;5069928;28;20208;-69
2023/01/11 06:41:04;;;;;;;1.00;0.80;;;7.50;99.90;;;;;;5070548;28;20204;-69
2023/01/11 06:43:31;;;;;;;0.90;0.70;;;7.50;99.90;;;;;;5069970;28;20207;-69
2023/01/11 06:45:59;;;;;;;0.80;0.70;;;7.50;99.90;;;;;;5070531;28;20212;-69
2023/01/11 06:48:26;;;;;;;1.00;0.80;;;7.50;99.90;;;;;;5069646;28;20204;-69
2023/01/11 06:50:56;;;;;;;0.80;0.70;;;7.50;99.90;;;;;;5070486;28;20821;-69
2023/01/11 06:53:23;;;;;;;0.70;0.70;;;7.60;99.90;;;;;;5070306;28;20200;-69
2023/01/11 06:55:51;;;;;;;1.00;0.80;;;7.60;99.90;;;;;;5070406;28;20226;-69
2023/01/11 06:58:17;;;;;;;1.20;0.80;;;7.70;99.90;;;;;;5069661;28;20204;-69
2023/01/11 07:00:44;;;;;;;1.10;0.80;;;7.60;99.90;;;;;;5070515;28;20207;-69
2023/01/11 07:03:11;;;;;;;1.52;0.90;;;7.70;99.90;;;;;;5070074;28;20212;-69
2023/01/11 07:05:39;;;;;;;0.85;0.70;;;7.60;99.90;;;;;;5069973;28;20269;-70
2023/01/11 07:08:07;;;;;;;1.42;0.95;;;7.60;99.90;;;;;;5070331;28;20204;-70
2023/01/11 07:10:34;;;;;;;0.90;0.70;;;7.60;99.90;;;;;;5069608;28;20211;-70
2023/01/11 07:13:01;;;;;;;0.70;0.60;;;7.60;99.90;;;;;;5070250;28;20200;-70
2023/01/11 07:15:27;;;;;;;0.90;0.80;;;7.60;99.90;;;;;;5070031;28;20299;-70
2023/01/11 07:17:55;;;;;;;1.00;0.85;;;7.70;99.90;;;;;;5074047;28;20561;-69
2023/01/11 07:20:23;;;;;;;0.80;0.80;;;7.60;99.90;;;;;;5073270;28;20204;-69
2023/01/11 07:22:50;;;;;;;1.27;0.80;;;7.70;99.90;;;;;;5074094;28;20196;-70
2023/01/11 07:25:19;;;;;;;0.93;0.82;;;7.70;99.90;;;;;;5073909;28;20702;-69
2023/01/11 07:27:46;;;;;;;0.80;0.68;;;7.80;99.90;;;;;;5073043;28;20208;-70
2023/01/11 07:30:13;;;;;;;1.90;0.90;;;7.70;99.90;;;;;;5073270;28;20202;-69
2023/01/11 07:32:40;;;;;;;0.90;0.80;;;7.80;99.90;;;;;;5072876;28;20200;-69
2023/01/11 07:35:07;;;;;;;1.10;0.90;;;7.70;99.90;;;;;;5073142;28;20195;-69
2023/01/11 07:37:37;;;;;;;0.80;0.70;;;7.80;99.90;;;;;;5072745;28;20223;-70
2023/01/11 07:40:05;;;;;;;1.52;1.05;;;7.80;99.90;;;;;;5072892;28;20193;-69
2023/01/11 07:45:18;;;;;;;1.30;0.90;;;7.90;99.90;;;;;;5073327;28;20212;-69
2023/01/11 07:47:44;;;;;;;0.90;0.70;;;7.90;99.90;;;;;;5071997;28;20219;-70
2023/01/11 07:50:11;;;;;;;1.10;0.90;;;8.00;99.90;;;;;;5054901;28;20282;-70
2023/01/11 07:52:38;;;;;;;1.05;0.90;;;8.00;99.90;;;;;;5072502;28;20200;-70
2023/01/11 07:55:05;;;;;;;0.93;0.73;;;8.10;99.90;;;;;;5072986;28;20203;-70
2023/01/11 07:57:34;;;;;;;0.70;0.70;;;8.10;99.90;;;;;;5073348;28;20235;-70
2023/01/11 08:00:01;;;;;;;0.95;0.85;;;8.20;99.90;;;;;;5073038;28;20196;-70
2023/01/11 08:02:28;;;;;;;1.10;0.85;;;8.20;99.90;;;;;;5073035;28;20205;-70
2023/01/11 08:04:55;;;;;;;1.23;0.80;;;8.30;99.90;;;;;;5073307;28;20581;-70
2023/01/11 08:07:21;;;;;;;1.55;1.15;;;8.30;99.90;;;;;;5072994;28;20216;-70
2023/01/11 08:09:48;;;;;;;1.48;1.10;;;8.30;99.90;;;;;;5072859;28;20474;-69
2023/01/11 08:15:00;;;;;;;1.38;1.10;;;8.40;99.90;;;;;;5073118;28;20216;-69
2023/01/11 08:17:27;;;;;;;0.93;0.70;;;8.40;99.90;;;;;;5072349;28;20224;-69
2023/01/11 08:19:54;;;;;;;1.15;0.90;;;8.50;99.90;;;;;;5072506;28;20204;-69
2023/01/11 08:22:21;;;;;;;0.90;0.70;;;8.60;99.90;;;;;;5073021;28;20201;-69
2023/01/11 08:24:48;;;;;;;0.90;0.80;;;8.60;99.90;;;;;;5073218;28;20212;-69
2023/01/11 08:27:15;;;;;;;1.58;0.80;;;8.60;99.90;;;;;;5072394;28;20248;-69
2023/01/11 08:29:43;;;;;;;1.30;0.90;;;8.60;99.90;;;;;;5072167;28;20204;-69
2023/01/11 08:32:11;;;;;;;1.00;0.80;;;8.70;99.90;;;;;;5072731;28;20583;-68
2023/01/11 08:34:38;;;;;;;1.02;0.75;;;8.70;99.90;;;;;;5072630;28;20587;-69
2023/01/11 08:37:04;;;;;;;1.00;0.70;;;8.70;99.90;;;;;;5072553;28;20224;-69
2023/01/11 08:39:31;;;;;;;0.88;0.80;;;8.70;99.90;;;;;;5071781;28;20211;-69
2023/01/11 08:41:58;;;;;;;0.93;0.70;;;8.80;99.90;;;;;;5072557;28;20201;-69
2023/01/11 08:44:25;;;;;;;1.75;0.80;;;8.80;99.90;;;;;;5072523;28;20579;-69
2023/01/11 08:46:52;;;;;;;0.90;0.80;;;8.80;99.90;;;;;;5072405;28;20220;-69
2023/01/11 08:49:20;;;;;;;0.70;0.65;;;8.90;99.90;;;;;;5071892;28;20201;-68
2023/01/11 08:51:47;;;;;;;0.80;0.75;;;8.90;99.90;;;;;;5072400;28;20203;-70
2023/01/11 08:54:16;;;;;;;1.25;0.85;;;8.90;99.90;;;;;;5072088;28;20250;-70
2023/01/11 08:56:43;;;;;;;0.80;0.70;;;9.00;99.90;;;;;;5071791;28;20224;-68
2023/01/11 08:59:10;;;;;;;0.80;0.70;;;8.90;99.90;;;;;;5071654;28;20215;-69
2023/01/11 09:01:37;;;;;;;0.80;0.70;;;9.00;99.90;;;;;;5071784;28;20216;-69
2023/01/11 09:04:04;;;;;;;1.00;0.80;;;9.10;99.90;;;;;;5072533;28;20211;-69
2023/01/11 09:06:32;;;;;;;1.65;1.08;;;9.10;99.90;;;;;;5071908;28;20209;-69
2023/01/11 09:08:59;;;;;;;0.85;0.70;;;9.20;99.90;;;;;;5071461;28;20204;-69
2023/01/11 09:14:10;;;;;;;1.00;0.70;;;9.30;99.90;;;;;;5071699;28;20736;-69
2023/01/11 09:16:37;;;;;;;0.90;0.80;;;9.20;99.90;;;;;;5067809;28;20220;-69
2023/01/11 09:19:04;;;;;;;0.80;0.60;;;9.30;99.90;;;;;;5070332;28;20207;-69
2023/01/11 09:21:32;;;;;;;0.95;0.82;;;9.30;99.90;;;;;;5071497;28;20611;-70
2023/01/11 09:23:59;;;;;;;1.08;0.82;;;9.30;99.90;;;;;;5071542;28;20212;-69
2023/01/11 09:26:25;;;;;;;1.15;0.90;;;9.40;99.90;;;;;;5070745;28;20220;-69
2023/01/11 09:28:52;;;;;;;1.15;0.88;;;9.40;99.90;;;;;;5070389;28;20211;-69
2023/01/11 09:31:19;;;;;;;0.90;0.80;;;9.40;99.90;;;;;;5070870;28;20558;-70
2023/01/11 09:33:46;;;;;;;1.20;0.98;;;9.40;99.90;;;;;;5067754;28;20382;-69
2023/01/11 09:36:13;;;;;;;1.00;0.80;;;9.50;99.90;;;;;;5070213;28;20231;-69
2023/01/11 09:38:42;;;;;;;1.00;0.88;;;9.50;99.90;;;;;;5069473;28;20204;-70
2023/01/11 09:41:22;;;;;;;1.23;0.90;;;9.50;99.90;;;;;;5070523;28;20206;-70
2023/01/11 09:43:55;;;;;;;1.38;1.05;;;9.50;99.90;;;;;;5070750;28;20200;-68
2023/01/11 09:46:24;;;;;;;0.80;0.70;;;9.50;99.90;;;;;;5070727;28;20297;-69
2023/01/11 09:48:57;;;;;;;0.80;0.70;;;9.60;99.90;;;;;;5068450;28;20299;-69
2023/01/11 09:51:33;;;;;;;1.13;0.80;;;9.60;99.90;;;;;;5069933;28;20211;-68
2023/01/11 09:54:05;;;;;;;0.90;0.70;;;9.60;99.90;;;;;;5069471;28;20200;-69
2023/01/11 09:56:45;;;;;;;1.58;1.13;;;9.60;99.90;;;;;;5069714;28;20821;-68
2023/01/11 09:59:23;;;;;;;0.80;0.70;;;9.60;99.90;;;;;;5049963;28;20304;-69
2023/01/11 10:02:00;;;;;;;0.95;0.80;;;9.60;99.90;;;;;;5049602;28;20208;-69
2023/01/11 10:04:45;;;;;;;1.20;0.90;;;9.60;99.90;;;;;;5049661;28;20204;-70
2023/01/11 10:07:48;;;;;;;0.90;0.80;;;9.60;99.90;;;;;;5050067;28;20220;-69
2023/01/11 10:10:35;;;;;;;1.00;0.85;;;9.60;99.90;;;;;;5049264;28;20549;-68
2023/01/11 10:13:11;;;;;;;1.00;0.75;;;9.70;99.90;;;;;;5050039;28;20204;-69
2023/01/11 10:15:45;;;;;;;1.40;0.95;;;9.60;99.90;;;;;;5047844;28;20225;-69
2023/01/11 10:18:26;;;;;;;0.93;0.75;;;9.70;99.90;;;;;;5049276;28;20228;-69
2023/01/11 10:21:00;;;;;;;0.85;0.73;;;9.60;99.90;;;;;;5049880;28;20224;-69
2023/01/11 10:23:40;;;;;;;1.10;1.00;;;9.70;99.90;;;;;;5048904;28;20250;-69
2023/01/11 10:26:22;;;;;;;1.35;1.10;;;9.60;99.90;;;;;;5064905;28;20212;-68
2023/01/11 10:29:08;;;;;;;1.15;1.05;;;9.60;99.90;;;;;;5070285;28;20204;-69
2023/01/11 10:31:48;;;;;;;2.05;1.00;;;9.60;99.90;;;;;;5070698;28;20200;-69
2023/01/11 10:34:37;;;;;;;2.17;1.42;;;9.60;99.90;;;;;;5070469;28;20242;-69
2023/01/11 10:37:25;;;;;;;0.90;0.70;;;9.70;99.90;;;;;;5070742;28;20224;-70
2023/01/11 10:40:18;;;;;;;1.10;0.85;;;9.70;99.90;;;;;;5070039;28;20208;-70
2023/01/11 10:42:51;;;;;;;1.05;0.80;;;9.70;99.90;;;;;;5070449;28;20207;-70
2023/01/11 10:45:21;;;;;;;1.52;0.90;;;9.80;99.90;;;;;;5070537;28;20196;-70
2023/01/11 10:47:55;;;;;;;0.95;0.85;;;9.70;99.90;;;;;;5070603;28;20707;-70
2023/01/11 10:50:26;;;;;;;1.00;0.90;;;9.80;99.90;;;;;;5071439;28;20200;-69
2023/01/11 10:53:01;;;;;;;0.90;0.70;;;9.80;99.90;;;;;;5074665;28;20211;-69
2023/01/11 10:55:38;;;;;;;1.05;0.80;;;9.80;99.90;;;;;;5074392;28;20199;-70
2023/01/11 10:58:17;;;;;;;1.27;0.80;;;9.80;99.90;;;;;;5074342;28;20759;-69
2023/01/11 11:00:50;;;;;;;0.93;0.80;;;9.80;99.90;;;;;;5074359;28;20294;-69
2023/01/11 11:03:52;;;;;;;1.00;0.90;;;9.80;99.90;;;;;;5074306;28;20299;-69
2023/01/11 11:06:28;;;;;;;1.00;0.80;;;9.80;99.90;;;;;;5074395;28;20275;-70
2023/01/11 11:09:01;;;;;;;0.90;0.80;;;9.90;99.90;;;;;;5074207;28;20191;-70
2023/01/11 11:11:35;;;;;;;1.05;0.85;;;9.80;99.90;;;;;;5074466;28;20298;-70
2023/01/11 11:14:11;;;;;;;1.00;0.80;;;9.80;99.90;;;;;;5074666;28;20212;-69
2023/01/11 11:16:49;;;;;;;1.00;0.80;;;9.80;99.90;;;;;;5074165;28;20228;-70
2023/01/11 11:19:20;;;;;;;1.08;0.75;;;9.90;99.90;;;;;;5073681;28;20227;-69
2023/01/11 11:21:51;;;;;;;0.93;0.82;;;9.80;99.90;;;;;;5074036;28;20209;-69
2023/01/11 11:24:22;;;;;;;0.90;0.77;;;9.80;99.90;;;;;;5073906;28;20200;-70
2023/01/11 11:26:57;;;;;;;1.40;1.20;;;9.80;99.90;;;;;;5073862;28;20216;-70
2023/01/11 11:29:29;;;;;;;1.00;0.90;;;9.80;99.90;;;;;;5073364;28;20204;-70
2023/01/11 11:31:58;;;;;;;1.60;0.95;;;9.80;99.90;;;;;;5073750;28;20650;-70
2023/01/11 11:34:26;;;;;;;0.82;0.80;;;9.80;99.90;;;;;;5073807;28;20205;-70
2023/01/11 11:36:54;;;;;;;1.45;1.08;;;9.90;99.90;;;;;;5073504;28;20224;-69
2023/01/11 11:39:23;;;;;;;1.48;1.20;;;10.00;99.90;;;;;;5073129;28;20208;-70
2023/01/11 11:41:51;;;;;;;1.10;0.95;;;10.00;99.90;;;;;;5073758;28;20675;-70
2023/01/11 11:44:20;;;;;;;1.25;0.85;;;10.10;99.90;;;;;;5072989;28;20207;-70
2023/01/11 11:46:58;;;;;;;1.08;0.98;;;10.10;99.90;;;;;;5073206;28;20311;-69
2023/01/11 11:49:26;;;;;;;1.00;0.77;;;10.10;99.90;;;;;;5073266;28;20206;-69
2023/01/11 11:51:53;;;;;;;1.05;0.90;;;10.10;99.90;;;;;;5069008;28;20196;-70
2023/01/11 11:54:25;;;;;;;1.00;0.90;;;10.10;99.90;;;;;;5072342;28;20572;-70
2023/01/11 11:56:53;;;;;;;0.90;0.80;;;10.10;99.90;;;;;;5073196;28;20270;-70
2023/01/11 11:59:22;;;;;;;1.25;0.85;;;10.10;99.90;;;;;;5070560;28;20220;-69
2023/01/11 12:01:59;;;;;;;1.05;0.77;;;10.10;99.90;;;;;;5071811;28;20196;-70
2023/01/11 12:04:43;;;;;;;1.00;0.90;;;10.10;99.90;;;;;;5072602;28;20690;-70
2023/01/11 12:07:14;;;;;;;2.35;1.23;;;10.00;99.90;;;;;;5072076;28;20247;-70
2023/01/11 12:09:46;;;;;;;1.15;1.00;;;10.00;99.90;;;;;;5072186;28;20287;-70
2023/01/11 12:12:18;;;;;;;1.00;0.90;;;10.00;99.90;;;;;;5070634;28;20290;-70
2023/01/11 12:15:19;;;;;;;1.02;0.80;;;10.00;99.90;;;;;;5070389;28;20200;-70
2023/01/11 12:17:48;;;;;;;1.05;0.95;;;9.90;99.90;;;;;;5069713;28;20313;-70
2023/01/11 12:20:34;;;;;;;1.20;0.93;;;9.90;99.90;;;;;;5071679;28;20215;-70
2023/01/11 12:23:18;;;;;;;1.15;1.00;;;9.90;99.90;;;;;;5072440;28;20212;-70
2023/01/11 12:26:16;;;;;;;1.65;1.20;;;9.90;99.90;;;;;;5071139;28;20193;-70
2023/01/11 12:29:00;;;;;;;1.23;1.05;;;9.90;99.90;;;;;;5055904;28;20192;-70
2023/01/11 12:31:35;;;;;;;4.40;1.05;;;9.90;99.90;;;;;;5071584;28;20208;-70
2023/01/11 12:34:14;;;;;;;0.93;0.90;;;10.00;99.90;;;;;;5072379;28;20204;-70
2023/01/11 12:36:51;;;;;;;2.83;0.98;;;10.00;99.90;;;;;;5071832;28;20224;-70
2023/01/11 12:39:26;;;;;;;1.48;1.00;;;10.00;99.90;;;;;;5071539;28;20227;-70
2023/01/11 12:42:07;;;;;;;1.00;0.90;;;10.00;99.90;;;;;;5071895;28;20655;-70
2023/01/11 12:44:57;;;;;;;1.33;1.23;;;10.00;99.90;;;;;;5071830;28;20204;-70
2023/01/11 12:48:05;;;;;;;1.20;1.00;;;9.90;99.90;;;;;;5073070;28;20220;-70
2023/01/11 12:50:41;;;;;;;1.30;1.20;;;9.90;99.90;;;;;;5050483;28;20196;-70
2023/01/11 12:53:26;;;;;;;1.25;1.00;;;9.90;99.90;;;;;;5072273;28;20208;-70
2023/01/11 12:56:04;;;;;;;1.10;1.00;;;9.80;99.90;;;;;;5071681;28;20216;-70
2023/01/11 12:58:37;;;;;;;1.23;1.13;;;9.90;99.90;;;;;;5068605;28;20212;-70
2023/01/11 13:01:22;;;;;;;1.20;0.98;;;9.90;99.90;;;;;;5071377;28;20201;-70
2023/01/11 13:04:23;;;;;;;1.10;0.85;;;9.90;99.90;;;;;;5071418;28;20204;-70
2023/01/11 13:07:01;;;;;;;1.00;0.85;;;9.90;99.90;;;;;;5070864;28;20219;-70
2023/01/11 13:09:37;;;;;;;1.20;0.85;;;9.90;99.90;;;;;;5071051;28;20196;-71
2023/01/11 13:12:10;;;;;;;1.90;1.20;;;9.90;99.90;;;;;;5071278;28;20536;-70
2023/01/11 13:15:03;;;;;;;1.27;0.90;;;9.80;99.90;;;;;;5069832;28;20208;-70
2023/01/11 13:17:41;;;;;;;1.05;0.90;;;9.80;99.90;;;;;;5063976;28;20274;-70
2023/01/11 13:20:24;;;;;;;0.90;0.80;;;9.80;99.90;;;;;;5070266;28;20243;-70
2023/01/11 13:22:57;;;;;;;1.13;1.02;;;9.90;99.90;;;;;;5070994;28;20611;-70
2023/01/11 13:25:27;;;;;;;1.48;1.00;;;9.90;99.90;;;;;;5071074;28;20196;-69
2023/01/11 13:27:56;;;;;;;1.27;0.80;;;9.90;99.90;;;;;;5069988;28;20200;-69
2023/01/11 13:30:24;;;;;;;0.80;0.80;;;9.90;99.90;;;;;;5069959;28;20196;-70
2023/01/11 13:32:56;;;;;;;1.00;0.90;;;9.90;99.90;;;;;;5070393;28;20200;-69
2023/01/11 13:35:34;;;;;;;1.20;0.90;;;9.80;99.90;;;;;;5070399;28;20202;-69
2023/01/11 13:38:10;;;;;;;1.05;0.95;;;9.80;99.90;;;;;;5070900;28;20266;-70
2023/01/11 13:40:43;;;;;;;1.10;1.00;;;9.80;99.90;;;;;;5070785;28;20577;-70